createdAt,value
2024-01-15T00:02:02.490Z,29.50
2024-01-15T00:04:29.196Z,25.73
2024-01-15T00:06:55.921Z,22.90
2024-01-15T00:09:22.692Z,25.05
2024-01-15T00:11:49.245Z,23.77
2024-01-15T00:14:21.537Z,22.55
2024-01-15T00:16:50.509Z,22.65
2024-01-15T00:19:17.376Z,22.02
2024-01-15T00:21:44.558Z,23.88
2024-01-15T00:24:11.511Z,24.42
2024-01-15T00:26:38.290Z,20.40
2024-01-15T00:29:04.992Z,23.13
2024-01-15T00:31:31.583Z,23.88
2024-01-15T00:33:59.050Z,21.38
2024-01-15T00:36:25.967Z,23.98
2024-01-15T00:38:52.820Z,21.92
2024-01-15T00:41:19.589Z,26.30
2024-01-15T00:43:50.337Z,24.95
2024-01-15T00:46:17.081Z,23.50
2024-01-15T00:48:43.761Z,21.10
2024-01-15T00:51:10.471Z,24.45
2024-01-15T00:53:36.945Z,19.30
2024-01-15T00:56:04.289Z,17.92
2024-01-15T00:58:30.994Z,18.45
2024-01-15T01:00:57.626Z,19.50
2024-01-15T01:03:24.553Z,14.85
2024-01-15T01:05:51.222Z,13.07
2024-01-15T01:08:17.865Z,14.13
2024-01-15T01:10:44.436Z,16.45
2024-01-15T01:13:10.925Z,12.80
2024-01-15T01:15:38.067Z,12.75
2024-01-15T01:18:05.035Z,9.73
2024-01-15T01:20:31.763Z,13.90
2024-01-15T01:22:59.007Z,11.90
2024-01-15T01:25:25.546Z,10.95
2024-01-15T01:27:52.130Z,12.80
2024-01-15T01:30:18.782Z,15.23
2024-01-15T01:32:45.398Z,11.43
2024-01-15T01:35:11.999Z,10.32
2024-01-15T01:37:38.497Z,12.18
2024-01-15T01:40:06.352Z,12.15
2024-01-15T01:42:32.849Z,11.95
2024-01-15T01:44:59.316Z,10.90
2024-01-15T01:47:27.714Z,12.27
2024-01-15T01:49:55.094Z,10.10
2024-01-15T01:52:21.944Z,12.07
2024-01-15T01:54:48.960Z,11.55
2024-01-15T01:57:16.578Z,11.93
2024-01-15T01:59:43.352Z,10.07
2024-01-15T02:02:09.902Z,9.98
2024-01-15T02:04:38.156Z,9.98
2024-01-15T02:07:05.486Z,13.23
2024-01-15T02:09:33.292Z,9.73
2024-01-15T02:12:00.306Z,10.07
2024-01-15T02:14:27.079Z,11.63
2024-01-15T02:16:53.809Z,9.23
2024-01-15T02:19:20.486Z,14.18
2024-01-15T02:21:47.222Z,7.18
2024-01-15T02:24:14.243Z,10.15
2024-01-15T02:26:40.921Z,7.00
2024-01-15T02:29:12.124Z,9.18
2024-01-15T02:31:39.072Z,8.65
2024-01-15T02:34:06.014Z,10.20
2024-01-15T02:36:33.013Z,8.60
2024-01-15T02:38:59.534Z,9.32
2024-01-15T02:41:26.143Z,10.10
2024-01-15T02:43:52.593Z,9.90
2024-01-15T02:46:19.116Z,7.35
2024-01-15T02:48:46.109Z,12.90
2024-01-15T02:51:12.721Z,10.20
2024-01-15T02:53:40.380Z,6.95
2024-01-15T02:56:08.502Z,18.00
2024-01-15T02:58:35.098Z,14.02
2024-01-15T03:01:01.942Z,11.43
2024-01-15T03:03:28.694Z,8.23
2024-01-15T03:05:55.362Z,10.70
2024-01-15T03:08:23.653Z,8.18
2024-01-15T03:10:50.167Z,15.88
2024-01-15T03:13:16.729Z,13.18
2024-01-15T03:15:44.543Z,11.82
2024-01-15T03:18:11.749Z,13.73
2024-01-15T03:20:38.465Z,13.48
2024-01-15T03:23:05.068Z,15.85
2024-01-15T03:25:31.549Z,12.23
2024-01-15T03:27:58.271Z,10.68
2024-01-15T03:30:24.890Z,13.95
2024-01-15T03:32:51.541Z,9.52
2024-01-15T03:35:18.272Z,10.00
2024-01-15T03:37:44.845Z,13.38
2024-01-15T03:40:12.161Z,13.88
2024-01-15T03:42:38.704Z,12.95
2024-01-15T03:45:05.961Z,15.77
2024-01-15T03:47:32.544Z,14.20
2024-01-15T03:49:59.147Z,15.07
2024-01-15T03:52:25.686Z,12.93
2024-01-15T03:54:52.340Z,9.68
2024-01-15T03:57:19.113Z,15.52
2024-01-15T03:59:48.176Z,17.02
2024-01-15T04:02:15.193Z,19.85
2024-01-15T04:04:43.246Z,16.52
2024-01-15T04:07:10.798Z,12.52
2024-01-15T04:09:37.524Z,17.52
2024-01-15T04:12:04.140Z,15.27
2024-01-15T04:14:30.613Z,14.07
2024-01-15T04:16:57.372Z,14.80
2024-01-15T04:19:23.861Z,11.38
2024-01-15T04:21:50.528Z,13.18
2024-01-15T04:24:19.088Z,12.18
2024-01-15T04:26:46.406Z,13.73
2024-01-15T04:29:13.249Z,11.45
2024-01-15T04:31:39.834Z,13.25
2024-01-15T04:34:06.676Z,11.02
2024-01-15T04:36:33.417Z,10.30
2024-01-15T04:38:59.889Z,13.82
2024-01-15T04:41:26.472Z,10.00
2024-01-15T04:43:53.050Z,13.82
2024-01-15T04:46:20.657Z,19.15
2024-01-15T04:48:47.997Z,14.00
2024-01-15T04:51:14.609Z,14.27
2024-01-15T04:53:41.211Z,12.93
2024-01-15T04:56:07.718Z,12.90
2024-01-15T04:58:34.393Z,10.18
2024-01-15T05:01:01.006Z,11.82
2024-01-15T05:03:27.748Z,10.30
2024-01-15T05:05:54.765Z,14.05
2024-01-15T05:08:21.215Z,10.55
2024-01-15T05:10:48.852Z,16.38
2024-01-15T05:13:15.916Z,14.48
2024-01-15T05:15:42.530Z,13.35
2024-01-15T05:18:09.544Z,11.20
2024-01-15T05:20:36.223Z,12.98
2024-01-15T05:23:02.770Z,12.45
2024-01-15T05:25:29.396Z,14.68
2024-01-15T05:27:55.905Z,12.80
2024-01-15T05:30:22.593Z,16.60
2024-01-15T05:32:49.118Z,16.67
2024-01-15T05:35:15.821Z,10.93
2024-01-15T05:37:45.652Z,11.00
2024-01-15T05:40:14.133Z,11.85
2024-01-15T05:42:41.254Z,10.13
2024-01-15T05:45:08.463Z,10.88
2024-01-15T05:47:35.024Z,14.05
2024-01-15T05:50:03.137Z,15.10
2024-01-15T05:52:29.792Z,16.27
2024-01-15T05:54:56.402Z,14.45
2024-01-15T05:57:22.939Z,15.43
2024-01-15T05:59:49.522Z,15.18
2024-01-15T06:02:16.106Z,16.00
2024-01-15T06:04:42.783Z,24.10
2024-01-15T06:07:09.330Z,20.27
2024-01-15T06:09:35.935Z,15.57
2024-01-15T06:12:02.406Z,18.60
2024-01-15T06:14:28.965Z,18.13
2024-01-15T06:16:55.559Z,13.30
2024-01-15T06:19:22.199Z,20.23
2024-01-15T06:21:48.895Z,18.25
2024-01-15T06:24:16.382Z,15.00
2024-01-15T06:26:42.987Z,17.27
2024-01-15T06:29:09.592Z,13.63
2024-01-15T06:31:36.420Z,15.95
2024-01-15T06:34:03.356Z,17.55
2024-01-15T06:36:30.068Z,13.52
2024-01-15T06:38:57.136Z,21.13
2024-01-15T06:41:23.843Z,19.98
2024-01-15T06:43:50.400Z,13.57
2024-01-15T06:46:24.018Z,11.15
2024-01-15T06:48:50.799Z,10.45
2024-01-15T06:51:17.953Z,14.07
2024-01-15T06:53:44.554Z,12.85
2024-01-15T06:56:11.105Z,13.43
2024-01-15T06:58:37.935Z,11.23
2024-01-15T07:01:06.018Z,9.63
2024-01-15T07:03:32.758Z,15.93
2024-01-15T07:05:59.496Z,21.77
2024-01-15T07:08:26.214Z,17.52
2024-01-15T07:10:53.169Z,14.07
2024-01-15T07:13:19.749Z,11.70
2024-01-15T07:15:46.426Z,14.18
2024-01-15T07:18:13.080Z,11.07
2024-01-15T07:20:39.959Z,8.48
2024-01-15T07:23:06.409Z,10.63
2024-01-15T07:25:32.936Z,8.98
2024-01-15T07:27:59.628Z,11.65
2024-01-15T07:30:26.256Z,12.52
2024-01-15T07:32:54.269Z,15.73
2024-01-15T07:35:20.985Z,13.40
2024-01-15T07:37:47.593Z,13.55
2024-01-15T07:40:14.240Z,19.20
2024-01-15T07:42:41.235Z,13.02
2024-01-15T07:45:07.809Z,14.05
2024-01-15T07:47:34.453Z,14.82
2024-01-15T07:50:04.209Z,12.68
2024-01-15T07:52:32.888Z,10.88
2024-01-15T07:55:04.551Z,20.55
2024-01-15T07:57:31.170Z,12.55
2024-01-15T07:59:57.749Z,13.30
2024-01-15T08:02:24.340Z,12.32
2024-01-15T08:04:50.804Z,13.55
2024-01-15T08:07:17.545Z,12.40
2024-01-15T08:09:44.234Z,10.95
2024-01-15T08:12:11.414Z,8.30
2024-01-15T08:14:37.936Z,16.40
2024-01-15T08:17:04.627Z,7.70
2024-01-15T08:19:31.317Z,13.25
2024-01-15T08:21:58.139Z,9.60
2024-01-15T08:24:24.665Z,10.75
2024-01-15T08:26:51.152Z,17.80
2024-01-15T08:29:19.662Z,13.52
2024-01-15T08:31:46.448Z,18.48
2024-01-15T08:34:13.332Z,10.05
2024-01-15T08:36:39.934Z,10.23
2024-01-15T08:39:06.631Z,13.30
2024-01-15T08:41:34.509Z,11.55
2024-01-15T08:44:01.105Z,17.08
2024-01-15T08:46:27.562Z,20.25
2024-01-15T08:48:54.302Z,14.73
2024-01-15T08:51:21.002Z,22.30
2024-01-15T08:53:47.643Z,13.43
2024-01-15T08:56:14.137Z,16.38
2024-01-15T08:58:41.274Z,18.35
2024-01-15T09:01:07.891Z,17.60
2024-01-15T09:03:35.369Z,14.02
2024-01-15T09:06:02.215Z,13.75
2024-01-15T09:08:29.328Z,19.80
2024-01-15T09:10:55.826Z,16.20
2024-01-15T09:13:22.373Z,25.00
2024-01-15T09:15:48.921Z,21.40
2024-01-15T09:18:15.696Z,16.98
2024-01-15T09:20:42.246Z,14.65
2024-01-15T09:23:08.839Z,20.60
2024-01-15T09:25:35.622Z,14.48
2024-01-15T09:28:02.291Z,14.10
2024-01-15T09:30:28.951Z,17.42
2024-01-15T09:32:55.579Z,19.13
2024-01-15T09:35:24.337Z,17.73
2024-01-15T09:37:51.666Z,15.27
2024-01-15T09:40:20.929Z,16.83
2024-01-15T09:42:47.975Z,12.43
2024-01-15T09:45:15.434Z,14.63
2024-01-15T09:47:45.471Z,15.05
2024-01-15T09:50:16.193Z,16.10
2024-01-15T09:55:11.112Z,12.30
2024-01-15T09:57:38.352Z,13.95
2024-01-15T10:00:07.461Z,16.92
2024-01-15T10:02:34.462Z,15.00
2024-01-15T10:05:01.117Z,16.80
2024-01-15T10:07:30.351Z,15.23
2024-01-15T10:09:57.100Z,16.85
2024-01-15T10:12:24.642Z,17.55
2024-01-15T10:14:52.181Z,13.95
2024-01-15T10:17:19.246Z,18.92
2024-01-15T10:19:50.424Z,16.83
2024-01-15T10:22:19.456Z,12.82
2024-01-15T10:24:48.541Z,11.25
2024-01-15T10:27:16.163Z,10.50
2024-01-15T10:29:43.569Z,13.02
2024-01-15T10:32:10.629Z,11.45
2024-01-15T10:34:42.647Z,9.63
2024-01-15T10:37:10.331Z,8.77
2024-01-15T10:39:38.470Z,9.80
2024-01-15T10:42:05.861Z,10.15
2024-01-15T10:44:33.024Z,6.32
2024-01-15T10:46:59.815Z,8.07
2024-01-15T10:49:32.773Z,7.80
2024-01-15T10:52:02.775Z,8.35
2024-01-15T10:54:30.497Z,6.00
2024-01-15T10:56:58.219Z,5.70
2024-01-15T10:59:24.859Z,6.53
2024-01-15T11:01:57.568Z,6.68
2024-01-15T11:04:25.408Z,4.15
2024-01-15T11:06:56.171Z,7.30
2024-01-15T11:09:24.826Z,7.57
2024-01-15T11:12:07.579Z,6.40
2024-01-15T11:14:48.080Z,7.72
2024-01-15T11:17:15.612Z,7.07
2024-01-15T11:19:47.040Z,9.05
2024-01-15T11:22:35.080Z,8.63
2024-01-15T11:25:15.206Z,13.40
2024-01-15T11:30:11.964Z,15.23
2024-01-15T11:32:42.638Z,13.82
2024-01-15T11:35:10.704Z,16.30
2024-01-15T11:37:52.727Z,12.30
2024-01-15T11:40:21.313Z,14.98
2024-01-15T11:42:49.463Z,9.07
2024-01-15T11:45:22.916Z,6.97
2024-01-15T11:48:15.718Z,9.85
2024-01-15T11:50:44.770Z,5.90
2024-01-15T11:53:19.115Z,5.00
2024-01-15T11:55:46.900Z,5.97
2024-01-15T11:58:14.094Z,3.42
2024-01-15T12:00:51.156Z,4.90
2024-01-15T12:03:17.780Z,6.43
2024-01-15T12:05:44.483Z,6.90
2024-01-15T12:08:14.362Z,5.75
2024-01-15T12:10:42.974Z,5.78
2024-01-15T12:13:14.207Z,8.23
2024-01-15T12:15:42.660Z,4.93
2024-01-15T12:18:14.209Z,7.07
2024-01-15T12:20:41.863Z,10.90
2024-01-15T12:23:09.206Z,6.50
2024-01-15T12:25:37.674Z,7.05
2024-01-15T12:28:04.776Z,8.13
2024-01-15T12:30:33.981Z,6.65
2024-01-15T12:33:07.752Z,6.68
2024-01-15T12:35:35.578Z,5.97
2024-01-15T12:38:04.344Z,7.13
2024-01-15T12:40:34.672Z,8.98
2024-01-15T12:43:02.027Z,4.30
2024-01-15T12:45:29.151Z,5.68
2024-01-15T12:47:56.478Z,3.97
2024-01-15T12:50:26.423Z,4.55
2024-01-15T12:52:52.995Z,11.85
2024-01-15T12:55:19.641Z,9.05
2024-01-15T12:57:47.105Z,6.43
2024-01-15T13:00:15.172Z,9.93
2024-01-15T13:02:43.999Z,7.20
2024-01-15T13:05:15.900Z,6.57
2024-01-15T13:07:44.396Z,6.43
2024-01-15T13:10:11.515Z,7.30
2024-01-15T13:12:39.684Z,6.63
2024-01-15T13:15:06.926Z,8.23
2024-01-15T13:17:33.563Z,7.70
2024-01-15T13:20:01.033Z,5.88
2024-01-15T13:22:32.867Z,7.38
2024-01-15T13:25:00.055Z,8.07
2024-01-15T13:27:26.809Z,6.40
2024-01-15T13:29:53.278Z,6.60
2024-01-15T13:32:26.843Z,5.25
2024-01-15T13:34:53.835Z,6.10
2024-01-15T13:37:20.632Z,12.93
2024-01-15T13:39:47.379Z,7.60
2024-01-15T13:42:14.073Z,4.40
2024-01-15T13:44:40.725Z,12.02
2024-01-15T13:47:07.435Z,7.60
2024-01-15T13:49:35.265Z,4.25
2024-01-15T13:52:04.878Z,5.90
2024-01-15T13:54:42.068Z,6.28
2024-01-15T13:57:15.893Z,5.43
2024-01-15T13:59:42.623Z,11.25
2024-01-15T14:02:09.160Z,10.13
2024-01-15T14:04:36.133Z,6.40
2024-01-15T14:07:02.745Z,5.30
2024-01-15T14:09:29.244Z,8.93
2024-01-15T14:11:55.861Z,8.52
2024-01-15T14:14:22.553Z,7.20
2024-01-15T14:16:49.032Z,8.13
2024-01-15T14:19:16.596Z,9.45
2024-01-15T14:21:43.273Z,4.68
2024-01-15T14:24:09.898Z,9.48
2024-01-15T14:26:36.481Z,6.18
2024-01-15T14:29:03.001Z,7.13
2024-01-15T14:31:29.897Z,12.73
2024-01-15T14:33:56.810Z,6.43
2024-01-15T14:36:23.336Z,5.43
2024-01-15T14:38:50.203Z,5.15
2024-01-15T14:41:20.274Z,7.57
2024-01-15T14:46:13.516Z,3.70
2024-01-15T14:48:40.176Z,6.03
2024-01-15T14:51:07.868Z,6.30
2024-01-15T14:53:34.367Z,7.57
2024-01-15T14:56:01.021Z,5.38
2024-01-15T14:58:27.495Z,7.00
2024-01-15T15:00:54.130Z,7.03
2024-01-15T15:03:22.119Z,6.70
2024-01-15T15:05:49.881Z,8.55
2024-01-15T15:08:16.497Z,9.38
2024-01-15T15:10:43.060Z,4.70
2024-01-15T15:13:11.099Z,5.13
2024-01-15T15:15:37.997Z,4.78
2024-01-15T15:18:04.755Z,6.22
2024-01-15T15:20:31.608Z,9.13
2024-01-15T15:22:58.306Z,7.38
2024-01-15T15:25:24.870Z,5.95
2024-01-15T15:27:51.542Z,7.88
2024-01-15T15:30:18.277Z,11.25
2024-01-15T15:32:44.990Z,6.22
2024-01-15T15:35:12.182Z,6.82
2024-01-15T15:37:38.920Z,9.23
2024-01-15T15:40:10.358Z,5.25
2024-01-15T15:42:37.157Z,6.70
2024-01-15T15:45:04.842Z,8.18
2024-01-15T15:47:31.889Z,9.10
2024-01-15T15:49:58.776Z,6.88
2024-01-15T15:52:25.809Z,9.23
2024-01-15T15:54:52.440Z,4.22
2024-01-15T15:57:19.197Z,4.72
2024-01-15T15:59:45.732Z,6.00
2024-01-15T16:02:12.277Z,5.72
2024-01-15T16:04:39.636Z,4.65
2024-01-15T16:07:10.795Z,5.10
2024-01-15T16:09:37.778Z,3.35
2024-01-15T16:12:04.849Z,6.25
2024-01-15T16:14:31.413Z,5.50
2024-01-15T16:23:13.700Z,6.70
2024-01-15T16:23:26.985Z,7.20
2024-01-15T16:23:42.400Z,9.05
2024-01-15T16:25:20.805Z,5.65
2024-01-15T16:27:47.607Z,6.07
2024-01-15T16:30:24.906Z,6.32
2024-01-15T16:32:56.922Z,9.38
2024-01-15T16:35:23.979Z,5.00
2024-01-15T16:37:50.850Z,5.13
2024-01-15T16:40:17.919Z,6.50
2024-01-15T16:42:46.382Z,3.28
2024-01-15T16:45:13.289Z,3.95
2024-01-15T16:47:40.034Z,4.40
2024-01-15T16:50:06.963Z,3.85
2024-01-15T16:52:33.681Z,2.10
2024-01-15T16:55:00.348Z,3.13
2024-01-15T16:57:27.083Z,1.52
2024-01-15T16:59:53.898Z,4.53
2024-01-15T17:02:20.696Z,5.78
2024-01-15T17:04:47.393Z,2.28
2024-01-15T17:07:15.000Z,2.30
2024-01-15T17:09:41.711Z,7.43
2024-01-15T17:12:08.442Z,3.22
2024-01-15T17:14:35.107Z,2.60
2024-01-15T17:17:02.467Z,3.33
2024-01-15T17:19:29.324Z,3.33
2024-01-15T17:21:56.245Z,3.42
2024-01-15T17:24:22.757Z,7.65
2024-01-15T17:26:50.161Z,6.72
2024-01-15T17:29:17.508Z,4.38
2024-01-15T17:31:44.069Z,3.83
2024-01-15T17:34:11.682Z,3.90
2024-01-15T17:36:40.294Z,4.43
2024-01-15T17:39:07.438Z,6.00
2024-01-15T17:41:34.670Z,2.83
2024-01-15T17:44:02.290Z,6.63
2024-01-15T17:46:30.248Z,1.92
2024-01-15T17:49:03.472Z,8.10
2024-01-15T17:51:34.165Z,2.88
2024-01-15T17:54:01.949Z,4.70
2024-01-15T17:56:29.054Z,4.68
2024-01-15T17:58:56.849Z,5.68
2024-01-15T18:01:23.987Z,4.15
2024-01-15T18:03:51.618Z,4.80
2024-01-15T18:06:18.522Z,7.47
2024-01-15T18:08:45.596Z,4.53
2024-01-15T18:11:19.711Z,7.65
2024-01-15T18:13:46.754Z,6.38
2024-01-15T18:16:13.430Z,8.30
2024-01-15T18:18:40.323Z,4.53
2024-01-15T18:21:07.088Z,8.52
2024-01-15T18:23:34.688Z,6.13
2024-01-15T18:26:01.407Z,3.63
2024-01-15T18:28:28.429Z,6.97
2024-01-15T18:30:55.050Z,8.48
2024-01-15T18:33:24.471Z,6.40
2024-01-15T18:35:51.637Z,4.28
2024-01-15T18:38:18.354Z,6.43
2024-01-15T18:40:44.935Z,4.68
2024-01-15T18:43:11.575Z,6.78
2024-01-15T18:45:38.064Z,6.80
2024-01-15T18:48:05.071Z,10.45
2024-01-15T18:50:31.976Z,8.05
2024-01-15T18:53:00.234Z,6.43
2024-01-15T18:55:26.741Z,7.40
2024-01-15T18:57:53.382Z,7.55
2024-01-15T19:00:22.037Z,10.10
2024-01-15T19:02:48.820Z,4.60
2024-01-15T19:05:15.564Z,5.28
2024-01-15T19:07:44.289Z,9.82
2024-01-15T19:10:10.875Z,13.32
2024-01-15T19:12:37.329Z,5.88
2024-01-15T19:15:04.294Z,7.90
2024-01-15T19:17:30.913Z,6.40
2024-01-15T19:19:57.670Z,9.45
2024-01-15T19:22:24.264Z,10.02
2024-01-15T19:24:50.906Z,9.48
2024-01-15T19:27:17.419Z,10.15
2024-01-15T19:29:44.048Z,9.70
2024-01-15T19:32:14.031Z,6.93
2024-01-15T19:34:43.450Z,4.35
2024-01-15T19:37:09.876Z,8.70
2024-01-15T19:39:36.465Z,13.80
2024-01-15T19:42:04.420Z,4.93
2024-01-15T19:44:31.286Z,8.65
2024-01-15T19:46:57.960Z,12.73
2024-01-15T19:49:24.640Z,7.60
2024-01-15T19:51:51.145Z,6.68
2024-01-15T19:54:19.101Z,8.02
2024-01-15T19:56:45.849Z,8.57
2024-01-15T19:59:12.750Z,12.65
2024-01-15T20:01:39.396Z,7.90
2024-01-15T20:04:06.062Z,6.85
2024-01-15T20:06:33.193Z,9.27
2024-01-15T20:08:59.805Z,8.35
2024-01-15T20:11:26.498Z,7.45
2024-01-15T20:13:52.999Z,6.25
2024-01-15T20:16:19.576Z,7.15
2024-01-15T20:18:46.490Z,8.27
2024-01-15T20:21:13.420Z,6.25
2024-01-15T20:23:50.509Z,6.28
2024-01-15T20:26:22.331Z,7.38
2024-01-15T20:28:49.024Z,7.85
2024-01-15T20:31:15.502Z,7.47
2024-01-15T20:33:42.376Z,7.05
2024-01-15T20:36:09.371Z,9.73
2024-01-15T20:38:37.371Z,9.77
2024-01-15T20:41:04.103Z,9.50
2024-01-15T20:43:31.205Z,7.70
2024-01-15T20:45:57.735Z,6.30
2024-01-15T20:48:25.573Z,9.80
2024-01-15T20:50:52.209Z,6.60
2024-01-15T20:53:20.747Z,9.48
2024-01-15T20:55:47.451Z,7.07
2024-01-15T20:58:14.020Z,5.22
2024-01-15T21:00:40.689Z,7.70
2024-01-15T21:03:07.740Z,7.20
2024-01-15T21:05:35.281Z,7.85
2024-01-15T21:08:03.901Z,7.35
2024-01-15T21:10:30.368Z,11.43
2024-01-15T21:12:56.990Z,10.23
2024-01-15T21:15:23.601Z,7.95
2024-01-15T21:17:50.860Z,12.40
2024-01-15T21:20:17.580Z,8.57
2024-01-15T21:22:44.408Z,10.18
2024-01-15T21:25:11.393Z,6.25
2024-01-15T21:27:42.048Z,6.13
2024-01-15T21:30:09.296Z,8.52
2024-01-15T21:32:36.014Z,13.32
2024-01-15T21:35:02.732Z,9.63
2024-01-15T21:37:29.542Z,4.85
2024-01-15T21:39:56.069Z,7.28
2024-01-15T21:42:22.736Z,9.48
2024-01-15T21:44:49.405Z,8.63
2024-01-15T21:47:16.241Z,5.55
2024-01-15T21:49:42.937Z,6.38
2024-01-15T21:52:09.996Z,5.80
2024-01-15T21:54:36.584Z,7.28
2024-01-15T21:57:05.337Z,5.18
2024-01-15T21:59:34.412Z,6.93
2024-01-15T22:02:05.309Z,10.82
2024-01-15T22:04:32.150Z,4.95
2024-01-15T22:06:58.741Z,6.50
2024-01-15T22:09:25.408Z,8.82
2024-01-15T22:11:52.407Z,5.07
2024-01-15T22:14:19.822Z,5.18
2024-01-15T22:16:47.259Z,6.03
2024-01-15T22:19:13.969Z,5.28
2024-01-15T22:21:44.384Z,6.68
2024-01-15T22:24:10.848Z,4.07
2024-01-15T22:26:38.366Z,3.50
2024-01-15T22:29:05.499Z,7.32
2024-01-15T22:31:33.041Z,6.75
2024-01-15T22:34:00.341Z,5.10
2024-01-15T22:36:27.126Z,6.55
2024-01-15T22:38:53.822Z,9.07
2024-01-15T22:41:21.214Z,4.07
2024-01-15T22:43:47.777Z,7.65
2024-01-15T22:46:15.307Z,3.00
2024-01-15T22:48:41.983Z,3.17
2024-01-15T22:51:09.625Z,2.63
2024-01-15T22:53:36.210Z,5.30
2024-01-15T22:56:03.262Z,9.90
2024-01-15T22:58:29.750Z,2.55
2024-01-15T23:00:56.256Z,4.53
2024-01-15T23:03:22.982Z,4.85
2024-01-15T23:05:49.581Z,12.68
2024-01-15T23:08:16.183Z,4.70
2024-01-15T23:10:42.696Z,5.30
2024-01-15T23:13:10.184Z,3.88
2024-01-15T23:15:36.656Z,3.70
2024-01-15T23:18:03.761Z,10.45
2024-01-15T23:20:30.451Z,4.57
2024-01-15T23:22:56.941Z,6.93
2024-01-15T23:25:23.516Z,11.30
2024-01-15T23:27:50.007Z,4.65
2024-01-15T23:30:16.879Z,10.15
2024-01-15T23:32:43.648Z,3.97
2024-01-15T23:35:10.421Z,9.85
2024-01-15T23:37:36.914Z,5.80
2024-01-15T23:40:04.275Z,5.32
2024-01-15T23:42:31.027Z,6.25
2024-01-15T23:44:57.674Z,3.80
2024-01-15T23:47:24.725Z,6.13
2024-01-15T23:49:51.435Z,6.45
2024-01-15T23:52:18.090Z,13.35
2024-01-15T23:54:44.888Z,6.90
2024-01-15T23:57:11.447Z,8.50
2024-01-15T23:59:39.364Z,4.38
